Time;durP1;ratioP1;P1;durP2;ratioP2;P2;SDS_P1;SDS_P2;PMS_P1;PMS_P2;Temp;Humidity;BMP_temperature;BMP_pressure;BME280_temperature;BME280_humidity;BME280_pressure;Samples;Min_cycle;Max_cycle;Signal;HPM_P1;HPM_P2
2021/03/26 00:01:07;;;;;;;19.58;11.43;;;3.50;99.90;;;;;;2089063;28;20831;-65
2021/03/26 00:02:09;;;;;;;17.10;10.45;;;3.50;99.90;;;;;;2081106;28;20191;-65
2021/03/26 00:03:19;;;;;;;15.18;10.13;;;3.50;99.90;;;;;;2081302;28;20201;-64
2021/03/26 00:04:20;;;;;;;17.77;10.80;;;3.50;99.90;;;;;;2081842;28;20663;-64
2021/03/26 00:05:20;;;;;;;14.73;10.80;;;3.50;99.90;;;;;;2080963;28;20193;-64
2021/03/26 00:06:28;;;;;;;18.37;10.30;;;3.50;99.90;;;;;;2081097;28;20432;-70
2021/03/26 00:07:29;;;;;;;15.30;10.27;;;3.50;99.90;;;;;;2089120;28;20798;-69
2021/03/26 00:08:30;;;;;;;18.67;10.32;;;3.50;99.90;;;;;;2081073;28;20231;-68
2021/03/26 00:09:36;;;;;;;17.93;11.27;;;3.50;99.90;;;;;;2080831;28;20291;-68
2021/03/26 00:10:37;;;;;;;13.93;10.18;;;3.50;99.90;;;;;;2088501;28;20673;-65
2021/03/26 00:11:38;;;;;;;15.53;10.47;;;3.50;99.90;;;;;;2080741;28;20189;-66
2021/03/26 00:12:38;;;;;;;15.60;10.43;;;3.50;99.90;;;;;;2081566;28;20268;-65
2021/03/26 00:13:40;;;;;;;17.73;10.47;;;3.40;99.90;;;;;;2080844;28;20178;-65
2021/03/26 00:14:41;;;;;;;15.95;10.32;;;3.40;99.90;;;;;;2081105;28;20188;-65
2021/03/26 00:15:43;;;;;;;13.87;9.87;;;3.40;99.90;;;;;;2081222;28;20181;-66
2021/03/26 00:16:43;;;;;;;14.38;10.75;;;3.30;99.90;;;;;;2081561;28;20696;-65
2021/03/26 00:17:44;;;;;;;17.77;10.83;;;3.30;99.90;;;;;;2081355;28;20257;-65
2021/03/26 00:18:45;;;;;;;15.50;10.00;;;3.20;99.90;;;;;;2081670;28;20227;-65
2021/03/26 00:19:46;;;;;;;17.13;11.03;;;3.20;99.90;;;;;;2081717;28;20182;-65
2021/03/26 00:20:46;;;;;;;18.93;11.87;;;3.10;99.90;;;;;;2081598;28;20413;-65
2021/03/26 00:21:47;;;;;;;19.67;12.67;;;3.10;99.90;;;;;;2081083;28;20169;-65
2021/03/26 00:22:48;;;;;;;17.77;12.03;;;3.10;99.90;;;;;;2081802;28;20672;-65
2021/03/26 00:23:50;;;;;;;17.40;11.97;;;3.10;99.90;;;;;;2081576;28;20170;-65
2021/03/26 00:24:51;;;;;;;22.60;13.45;;;3.10;99.90;;;;;;2081883;28;20499;-65
2021/03/26 00:25:52;;;;;;;24.20;14.73;;;3.10;99.90;;;;;;2081652;28;20264;-64
2021/03/26 00:26:52;;;;;;;19.65;12.95;;;3.10;99.90;;;;;;2089188;28;20173;-65
2021/03/26 00:27:55;;;;;;;18.93;13.10;;;3.10;99.90;;;;;;2088771;28;20183;-65
2021/03/26 00:28:55;;;;;;;24.88;13.55;;;3.20;99.90;;;;;;2088544;28;20211;-65
2021/03/26 00:29:56;;;;;;;25.17;13.40;;;3.20;99.90;;;;;;2088421;28;20188;-65
2021/03/26 00:30:57;;;;;;;19.30;13.43;;;3.30;99.90;;;;;;2080103;28;20209;-65
2021/03/26 00:31:57;;;;;;;19.33;12.70;;;3.30;99.90;;;;;;2088701;28;20184;-65
2021/03/26 00:32:58;;;;;;;19.50;13.17;;;3.40;99.90;;;;;;2091298;28;20291;-65
2021/03/26 00:33:59;;;;;;;22.90;13.57;;;3.40;99.90;;;;;;2080612;28;20224;-65
2021/03/26 00:35:00;;;;;;;20.43;11.97;;;3.40;99.90;;;;;;2080635;28;20189;-65
2021/03/26 00:36:02;;;;;;;18.33;12.73;;;3.30;99.90;;;;;;2081393;28;20738;-65
2021/03/26 00:37:04;;;;;;;20.13;12.80;;;3.30;99.90;;;;;;2081140;28;20264;-65
2021/03/26 00:38:06;;;;;;;19.83;12.88;;;3.30;99.90;;;;;;2081556;28;20216;-65
2021/03/26 00:39:08;;;;;;;20.50;12.73;;;3.40;99.90;;;;;;2081301;28;20184;-65
2021/03/26 00:40:12;;;;;;;19.10;12.77;;;3.40;99.90;;;;;;2080750;28;20652;-65
2021/03/26 00:41:12;;;;;;;18.88;12.25;;;3.40;99.90;;;;;;2079996;28;20790;-65
2021/03/26 00:42:13;;;;;;;21.37;13.53;;;3.40;99.90;;;;;;2081329;28;20178;-64
2021/03/26 00:43:14;;;;;;;18.53;12.67;;;3.40;99.90;;;;;;2081382;28;20764;-64
2021/03/26 00:44:14;;;;;;;21.87;12.40;;;3.30;99.90;;;;;;2081086;28;20176;-65
2021/03/26 00:45:21;;;;;;;19.37;12.23;;;3.40;99.90;;;;;;2081350;28;20179;-64
2021/03/26 00:46:24;;;;;;;18.35;11.73;;;3.40;99.90;;;;;;2081191;28;20253;-64
2021/03/26 00:47:26;;;;;;;18.23;11.77;;;3.30;99.90;;;;;;2081360;28;20177;-64
2021/03/26 00:48:27;;;;;;;16.10;11.60;;;3.30;99.90;;;;;;2081269;28;20178;-64
2021/03/26 00:49:27;;;;;;;20.53;12.20;;;3.40;99.90;;;;;;2081101;28;20181;-65
2021/03/26 00:50:34;;;;;;;18.37;11.10;;;3.30;99.90;;;;;;2081361;28;20442;-65
2021/03/26 00:51:36;;;;;;;18.52;10.63;;;3.30;99.90;;;;;;2080711;28;20174;-65
2021/03/26 00:52:37;;;;;;;17.52;12.05;;;3.20;99.90;;;;;;2081239;28;20185;-65
2021/03/26 00:53:38;;;;;;;19.57;12.30;;;3.30;99.90;;;;;;2088767;28;20574;-65
2021/03/26 00:54:38;;;;;;;18.73;11.87;;;3.20;99.90;;;;;;2089144;28;20685;-65
2021/03/26 00:55:40;;;;;;;18.13;11.60;;;3.20;99.90;;;;;;2080633;28;20338;-65
2021/03/26 00:56:41;;;;;;;18.13;11.07;;;3.20;99.90;;;;;;2081262;28;20176;-65
2021/03/26 00:57:42;;;;;;;15.93;10.98;;;3.20;99.90;;;;;;2081101;28;20178;-65
2021/03/26 00:58:43;;;;;;;19.57;11.40;;;3.10;99.90;;;;;;2081342;28;20177;-65
2021/03/26 00:59:43;;;;;;;14.67;10.17;;;3.10;99.90;;;;;;2081057;28;20165;-66
2021/03/26 01:00:45;;;;;;;16.73;10.07;;;3.20;99.90;;;;;;2088297;28;20183;-64
2021/03/26 01:01:46;;;;;;;18.75;12.48;;;3.10;99.90;;;;;;2080054;28;20165;-65
2021/03/26 01:02:48;;;;;;;21.13;12.17;;;3.10;99.90;;;;;;2080608;28;20218;-65
2021/03/26 01:03:48;;;;;;;16.00;10.85;;;3.00;99.90;;;;;;2081192;28;20165;-65
2021/03/26 01:04:49;;;;;;;19.10;11.27;;;3.00;99.90;;;;;;2081332;28;20178;-66
2021/03/26 01:05:55;;;;;;;17.30;11.60;;;3.00;99.90;;;;;;2080990;28;20181;-65
2021/03/26 01:06:55;;;;;;;17.92;12.15;;;3.00;99.90;;;;;;2081411;28;20203;-64
2021/03/26 01:07:56;;;;;;;18.77;11.60;;;3.00;99.90;;;;;;2081194;28;20645;-65
2021/03/26 01:08:57;;;;;;;16.70;10.77;;;3.00;99.90;;;;;;2081253;28;20188;-65
2021/03/26 01:09:58;;;;;;;16.55;10.57;;;3.00;99.90;;;;;;2081127;28;20188;-65
2021/03/26 01:11:10;;;;;;;17.03;11.20;;;3.00;99.90;;;;;;2080507;28;20276;-65
2021/03/26 01:12:11;;;;;;;20.27;11.70;;;3.00;99.90;;;;;;2080765;28;20161;-65
2021/03/26 01:13:15;;;;;;;18.77;12.27;;;3.00;99.90;;;;;;2081316;28;20240;-65
2021/03/26 01:14:20;;;;;;;23.92;13.02;;;2.90;99.90;;;;;;2081107;28;20564;-64
2021/03/26 01:15:26;;;;;;;19.55;12.55;;;2.90;99.90;;;;;;2081314;28;20219;-65
2021/03/26 01:16:28;;;;;;;19.70;12.60;;;2.90;99.90;;;;;;2080981;28;20251;-64
2021/03/26 01:17:28;;;;;;;22.25;12.68;;;2.80;99.90;;;;;;2081079;28;20552;-65
2021/03/26 01:18:38;;;;;;;20.97;13.37;;;2.80;99.90;;;;;;2081070;28;20189;-65
2021/03/26 01:19:42;;;;;;;21.90;13.52;;;2.80;99.90;;;;;;2080532;28;20201;-65
2021/03/26 01:20:42;;;;;;;23.38;12.68;;;2.80;99.90;;;;;;2080171;28;20173;-65
2021/03/26 01:21:43;;;;;;;20.03;13.83;;;2.70;99.90;;;;;;2080678;28;20726;-65
2021/03/26 01:22:44;;;;;;;22.50;14.93;;;2.70;99.90;;;;;;2080769;28;20246;-65
2021/03/26 01:23:46;;;;;;;21.65;14.05;;;2.70;99.90;;;;;;2081127;28;20211;-65
2021/03/26 01:24:46;;;;;;;23.40;14.85;;;2.80;99.90;;;;;;2080916;28;20644;-65
2021/03/26 01:25:48;;;;;;;25.00;14.73;;;2.70;99.90;;;;;;2081138;28;20169;-65
2021/03/26 01:26:48;;;;;;;22.42;13.85;;;2.70;99.90;;;;;;2080993;28;20184;-65
2021/03/26 01:27:49;;;;;;;22.27;13.27;;;2.70;99.90;;;;;;2080981;28;20212;-65
2021/03/26 01:28:51;;;;;;;23.43;13.90;;;2.60;99.90;;;;;;2081090;28;20211;-65
2021/03/26 01:29:51;;;;;;;22.35;14.50;;;2.60;99.90;;;;;;2081018;28;20199;-65
2021/03/26 01:30:53;;;;;;;24.03;14.00;;;2.60;99.90;;;;;;2080308;28;20200;-64
2021/03/26 01:31:54;;;;;;;24.08;14.50;;;2.50;99.90;;;;;;2088700;28;20227;-65
2021/03/26 01:32:54;;;;;;;24.53;14.07;;;2.50;99.90;;;;;;2088594;28;20188;-65
2021/03/26 01:33:55;;;;;;;21.47;13.70;;;2.40;99.90;;;;;;2080775;28;20177;-65
2021/03/26 01:34:56;;;;;;;22.70;14.93;;;2.40;99.90;;;;;;2081017;28;20274;-67
2021/03/26 01:35:58;;;;;;;22.97;14.20;;;2.40;99.90;;;;;;2080987;28;20728;-65
2021/03/26 01:36:58;;;;;;;21.30;13.65;;;2.40;99.90;;;;;;2080820;28;20177;-64
2021/03/26 01:37:59;;;;;;;23.13;14.73;;;2.30;99.90;;;;;;2081314;28;20196;-69
2021/03/26 01:39:01;;;;;;;20.27;14.10;;;2.30;99.90;;;;;;2081126;28;20185;-65
2021/03/26 01:40:05;;;;;;;20.80;13.63;;;2.20;99.90;;;;;;2081148;28;20219;-65
2021/03/26 01:41:21;;;;;;;19.45;13.13;;;2.20;99.90;;;;;;2079579;28;20213;-65
2021/03/26 01:42:30;;;;;;;18.63;11.77;;;2.20;99.90;;;;;;2080719;28;20215;-65
2021/03/26 01:43:38;;;;;;;16.10;10.95;;;2.10;99.90;;;;;;2081225;28;20590;-65
2021/03/26 01:44:39;;;;;;;16.98;10.48;;;2.10;99.90;;;;;;2080211;28;20202;-65
2021/03/26 01:45:40;;;;;;;17.87;11.70;;;2.10;99.90;;;;;;2080500;28;20187;-65
2021/03/26 01:46:44;;;;;;;21.33;11.73;;;2.10;99.90;;;;;;2080977;28;20185;-65
2021/03/26 01:47:48;;;;;;;18.92;11.85;;;2.10;99.90;;;;;;2080793;28;20622;-65
2021/03/26 01:48:55;;;;;;;16.98;11.65;;;2.00;99.90;;;;;;2080382;28;20682;-65
2021/03/26 01:49:56;;;;;;;22.23;12.07;;;2.00;99.90;;;;;;2080200;28;20265;-64
2021/03/26 01:50:58;;;;;;;18.70;11.25;;;2.00;99.90;;;;;;2080329;28;20879;-65
2021/03/26 01:51:59;;;;;;;19.05;11.32;;;2.00;99.90;;;;;;2081260;28;20267;-65
2021/03/26 01:53:01;;;;;;;23.10;13.07;;;2.00;99.90;;;;;;2081979;28;20430;-65
2021/03/26 01:54:05;;;;;;;17.70;11.73;;;2.00;99.90;;;;;;2082330;28;20189;-65
2021/03/26 01:55:09;;;;;;;18.73;12.73;;;2.00;99.90;;;;;;2081437;28;20552;-65
2021/03/26 01:56:11;;;;;;;19.15;11.85;;;2.00;99.90;;;;;;2081339;28;20193;-65
2021/03/26 01:57:13;;;;;;;18.77;11.63;;;2.00;99.90;;;;;;2080851;28;20181;-64
2021/03/26 01:58:19;;;;;;;18.33;12.73;;;2.00;99.90;;;;;;2080845;28;20179;-65
2021/03/26 01:59:20;;;;;;;21.50;12.90;;;1.90;99.90;;;;;;2081035;28;20166;-65
2021/03/26 02:00:34;;;;;;;23.90;13.60;;;1.90;99.90;;;;;;2080694;28;20185;-65
2021/03/26 02:01:45;;;;;;;22.23;13.07;;;1.90;99.90;;;;;;2087843;28;20646;-70
2021/03/26 02:02:46;;;;;;;20.35;12.60;;;1.90;99.90;;;;;;2086905;28;20582;-65
2021/03/26 02:03:53;;;;;;;23.45;13.85;;;1.90;99.90;;;;;;2080385;28;20243;-65
2021/03/26 02:04:54;;;;;;;19.92;13.20;;;1.90;99.90;;;;;;2087761;28;20754;-65
2021/03/26 02:05:58;;;;;;;24.27;13.87;;;1.90;99.90;;;;;;2088151;28;20201;-65
2021/03/26 02:06:59;;;;;;;21.55;13.48;;;1.90;99.90;;;;;;2080362;28;20181;-65
2021/03/26 02:08:01;;;;;;;20.73;13.23;;;1.90;99.90;;;;;;2072091;28;20433;-65
2021/03/26 02:09:17;;;;;;;20.08;12.75;;;1.90;99.90;;;;;;2080319;28;20192;-65
2021/03/26 02:10:19;;;;;;;27.00;14.02;;;1.90;99.90;;;;;;2088389;28;20184;-65
2021/03/26 02:11:46;;;;;;;20.55;13.75;;;1.90;99.90;;;;;;2087366;28;20567;-65
2021/03/26 02:12:48;;;;;;;21.52;12.63;;;1.90;99.90;;;;;;2080968;28;20200;-65
2021/03/26 02:13:51;;;;;;;24.10;13.60;;;2.00;99.90;;;;;;2090320;28;20207;-65
2021/03/26 02:14:58;;;;;;;22.02;14.05;;;1.90;99.90;;;;;;2089711;28;20176;-66
2021/03/26 02:16:03;;;;;;;24.13;13.85;;;1.90;99.90;;;;;;2082061;28;20161;-65
2021/03/26 02:17:05;;;;;;;22.48;14.10;;;1.90;99.90;;;;;;2081698;28;20189;-65
2021/03/26 02:18:07;;;;;;;21.85;14.05;;;1.90;99.90;;;;;;2082470;28;20193;-65
2021/03/26 02:19:30;;;;;;;26.20;15.48;;;1.90;99.90;;;;;;2082346;28;20181;-65
2021/03/26 02:20:33;;;;;;;22.88;14.73;;;1.90;99.90;;;;;;2089841;28;20196;-65
2021/03/26 02:21:43;;;;;;;26.65;15.63;;;1.90;99.90;;;;;;2089164;28;20225;-65
2021/03/26 02:22:44;;;;;;;25.65;14.50;;;1.90;99.90;;;;;;2081426;28;20172;-65
2021/03/26 02:23:45;;;;;;;26.03;14.20;;;1.90;99.90;;;;;;2073625;28;20695;-64
2021/03/26 02:24:48;;;;;;;23.85;14.73;;;1.90;99.90;;;;;;2081635;28;20434;-64
2021/03/26 02:25:50;;;;;;;21.42;13.98;;;1.90;99.90;;;;;;2082441;28;20184;-65
2021/03/26 02:26:54;;;;;;;30.42;15.48;;;1.90;99.90;;;;;;2082228;28;20184;-64
2021/03/26 02:27:54;;;;;;;25.38;15.15;;;1.90;99.90;;;;;;2089907;28;20172;-65
2021/03/26 02:28:57;;;;;;;25.57;15.30;;;1.80;99.90;;;;;;2089943;28;20179;-65
2021/03/26 02:30:01;;;;;;;27.58;14.50;;;1.80;99.90;;;;;;2089915;28;20276;-64
2021/03/26 02:31:03;;;;;;;24.50;14.85;;;1.80;99.90;;;;;;2088718;28;20749;-64
2021/03/26 02:32:22;;;;;;;22.88;13.85;;;1.80;99.90;;;;;;2082362;28;20179;-65
2021/03/26 02:33:26;;;;;;;26.75;15.25;;;1.80;99.90;;;;;;2082376;28;20262;-64
2021/03/26 02:34:28;;;;;;;25.00;14.52;;;1.70;99.90;;;;;;2082273;28;20187;-65
2021/03/26 02:36:17;;;;;;;23.52;14.52;;;1.70;99.90;;;;;;2082271;28;20280;-65
2021/03/26 02:37:18;;;;;;;20.17;12.60;;;1.70;99.90;;;;;;2082547;28;20940;-64
2021/03/26 02:38:31;;;;;;;21.70;14.00;;;1.60;99.90;;;;;;2082530;28;20218;-65
2021/03/26 02:39:38;;;;;;;18.05;12.05;;;1.50;99.90;;;;;;2082385;28;20279;-65
2021/03/26 02:41:08;;;;;;;19.52;12.48;;;1.50;99.90;;;;;;2082372;28;20625;-64
2021/03/26 02:42:26;;;;;;;23.45;12.82;;;1.50;99.90;;;;;;2082237;28;20678;-65
2021/03/26 02:44:07;;;;;;;19.02;12.00;;;1.40;99.90;;;;;;2089889;28;20196;-65
2021/03/26 02:45:27;;;;;;;22.58;12.88;;;1.30;99.90;;;;;;2084971;28;20659;-65
2021/03/26 02:46:48;;;;;;;21.10;13.10;;;1.30;99.90;;;;;;2081746;28;20204;-65
2021/03/26 02:47:57;;;;;;;21.58;12.88;;;1.30;99.90;;;;;;2081836;28;20161;-65
2021/03/26 02:49:31;;;;;;;22.05;13.35;;;1.20;99.90;;;;;;2082287;28;20172;-65
2021/03/26 02:50:54;;;;;;;26.17;14.07;;;1.20;99.90;;;;;;2089690;28;20172;-65
2021/03/26 02:52:29;;;;;;;26.50;13.43;;;1.20;99.90;;;;;;2086977;28;20164;-65
2021/03/26 02:54:02;;;;;;;21.35;12.88;;;1.10;99.90;;;;;;2086474;28;20190;-66
2021/03/26 02:55:26;;;;;;;26.25;13.77;;;1.10;99.90;;;;;;2081356;28;20171;-65
2021/03/26 02:56:49;;;;;;;23.58;13.18;;;1.00;99.90;;;;;;2081449;28;20180;-65
2021/03/26 02:57:58;;;;;;;25.08;13.40;;;1.00;99.90;;;;;;2081832;28;20632;-65
2021/03/26 02:59:07;;;;;;;20.70;13.60;;;1.00;99.90;;;;;;2082167;28;20534;-66
2021/03/26 03:00:17;;;;;;;21.42;12.30;;;1.00;99.90;;;;;;2081521;28;20176;-65
2021/03/26 03:01:41;;;;;;;22.42;13.57;;;0.90;99.90;;;;;;2080784;28;20217;-65
2021/03/26 03:02:44;;;;;;;21.17;12.40;;;0.90;99.90;;;;;;2081387;28;20519;-65
2021/03/26 03:03:47;;;;;;;23.85;13.35;;;0.90;99.90;;;;;;2073367;28;20185;-65
2021/03/26 03:04:58;;;;;;;21.13;12.50;;;0.90;99.90;;;;;;2073446;28;20203;-66
2021/03/26 03:06:17;;;;;;;21.20;13.07;;;0.90;99.90;;;;;;2081470;28;20171;-65
2021/03/26 03:07:26;;;;;;;21.52;12.52;;;0.80;99.90;;;;;;2075649;28;20192;-65
2021/03/26 03:08:33;;;;;;;21.48;12.63;;;0.80;99.90;;;;;;2074787;28;20169;-64
2021/03/26 03:09:38;;;;;;;18.92;12.35;;;0.80;99.90;;;;;;2074392;28;20219;-65
2021/03/26 03:10:50;;;;;;;25.38;14.27;;;0.80;99.90;;;;;;2073751;28;20266;-65
2021/03/26 03:12:06;;;;;;;19.73;12.48;;;0.80;99.90;;;;;;2074779;28;20203;-65
2021/03/26 03:13:16;;;;;;;19.83;12.63;;;0.80;99.90;;;;;;2075162;28;20191;-64
2021/03/26 03:14:33;;;;;;;25.95;13.85;;;0.70;99.90;;;;;;2081520;28;20176;-64
2021/03/26 03:15:44;;;;;;;20.80;13.02;;;0.80;99.90;;;;;;2089749;28;20190;-64
2021/03/26 03:17:37;;;;;;;23.45;14.23;;;0.80;99.90;;;;;;2088329;28;20176;-64
2021/03/26 03:18:47;;;;;;;20.40;12.77;;;0.70;99.90;;;;;;2080985;28;20272;-65
2021/03/26 03:20:09;;;;;;;21.55;13.77;;;0.70;99.90;;;;;;2081291;28;20181;-64
2021/03/26 03:21:27;;;;;;;26.52;13.95;;;0.70;99.90;;;;;;2080319;28;20205;-64
2021/03/26 03:22:41;;;;;;;27.23;15.00;;;0.70;99.90;;;;;;2081053;28;20801;-65
2021/03/26 03:23:52;;;;;;;23.60;14.05;;;0.60;99.90;;;;;;2081022;28;20188;-65
2021/03/26 03:24:57;;;;;;;24.25;13.48;;;0.60;99.90;;;;;;2088686;28;20684;-65
2021/03/26 03:26:09;;;;;;;30.77;13.93;;;0.60;99.90;;;;;;2089109;28;20167;-65
2021/03/26 03:27:37;;;;;;;32.95;15.90;;;0.60;99.90;;;;;;2081160;28;20196;-65
2021/03/26 03:28:59;;;;;;;20.88;13.30;;;0.50;99.90;;;;;;2081553;28;20681;-64
2021/03/26 03:30:42;;;;;;;30.00;15.27;;;0.50;99.90;;;;;;2081863;28;20730;-65
2021/03/26 03:32:03;;;;;;;25.13;13.70;;;0.50;99.90;;;;;;2088942;28;20213;-64
2021/03/26 03:33:22;;;;;;;29.58;14.55;;;0.50;99.90;;;;;;2086639;28;20634;-65
2021/03/26 03:34:33;;;;;;;26.02;14.13;;;0.50;99.90;;;;;;2089552;28;20252;-65
2021/03/26 03:36:23;;;;;;;20.70;12.82;;;0.50;99.90;;;;;;2088067;28;20172;-65
2021/03/26 03:38:09;;;;;;;26.15;14.00;;;0.50;99.90;;;;;;2080801;28;20254;-64
2021/03/26 03:39:22;;;;;;;22.13;13.32;;;0.50;99.90;;;;;;2073866;28;20196;-64
2021/03/26 03:41:00;;;;;;;22.27;12.27;;;0.50;99.90;;;;;;2081817;28;20190;-64
2021/03/26 03:42:15;;;;;;;22.92;12.98;;;0.50;99.90;;;;;;2080914;28;20197;-64
2021/03/26 03:44:09;;;;;;;22.48;13.68;;;0.40;99.90;;;;;;2083004;28;20687;-65
2021/03/26 03:45:24;;;;;;;22.20;13.07;;;0.40;99.90;;;;;;2065626;28;20189;-65
2021/03/26 03:46:34;;;;;;;33.75;16.25;;;0.40;99.90;;;;;;2077675;28;20656;-65
2021/03/26 03:47:55;;;;;;;26.95;14.25;;;0.40;99.90;;;;;;2079792;28;20219;-64
2021/03/26 03:49:06;;;;;;;29.17;14.85;;;0.40;99.90;;;;;;2072891;28;20175;-64
2021/03/26 03:50:16;;;;;;;24.42;14.10;;;0.40;99.90;;;;;;2080673;28;20590;-65
2021/03/26 03:51:26;;;;;;;26.33;15.23;;;0.40;99.90;;;;;;2088206;28;20204;-64
2021/03/26 03:52:36;;;;;;;24.35;14.60;;;0.40;99.90;;;;;;2079619;28;20168;-65
2021/03/26 03:53:57;;;;;;;23.80;14.57;;;0.40;99.90;;;;;;2065613;28;20665;-65
2021/03/26 03:55:16;;;;;;;33.70;16.52;;;0.40;99.90;;;;;;2067144;28;20176;-64
2021/03/26 03:56:38;;;;;;;30.65;14.15;;;0.30;99.90;;;;;;2075132;28;20183;-65
2021/03/26 03:57:47;;;;;;;25.60;13.90;;;0.30;99.90;;;;;;2088945;28;20197;-65
2021/03/26 03:58:59;;;;;;;23.23;14.30;;;0.30;99.90;;;;;;2086675;28;20165;-65
2021/03/26 04:00:20;;;;;;;30.95;17.02;;;0.30;99.90;;;;;;2080632;28;20179;-65
2021/03/26 04:01:44;;;;;;;29.75;14.95;;;0.30;99.90;;;;;;2088236;28;20745;-64
2021/03/26 04:02:47;;;;;;;26.83;14.98;;;0.30;99.90;;;;;;2077651;28;20286;-64
2021/03/26 04:04:07;;;;;;;30.85;15.95;;;0.30;99.90;;;;;;2072783;28;20183;-65
2021/03/26 04:05:12;;;;;;;24.92;14.38;;;0.30;99.90;;;;;;2080932;28;20256;-64
2021/03/26 04:06:19;;;;;;;26.52;14.90;;;0.30;99.90;;;;;;2080714;28;20571;-64
2021/03/26 04:07:41;;;;;;;30.08;15.48;;;0.20;99.90;;;;;;2089184;28;20186;-64
2021/03/26 04:09:15;;;;;;;25.05;14.15;;;0.30;99.90;;;;;;2077861;28;20172;-65
2021/03/26 04:10:17;;;;;;;23.83;14.02;;;0.20;99.90;;;;;;2069211;28;20223;-64
2021/03/26 04:11:24;;;;;;;27.83;14.68;;;0.20;99.90;;;;;;2071885;28;20800;-64
2021/03/26 04:12:34;;;;;;;33.00;16.02;;;0.30;99.90;;;;;;2089168;28;20603;-64
2021/03/26 04:13:44;;;;;;;27.65;15.93;;;0.20;99.90;;;;;;2086705;28;20179;-64
2021/03/26 04:14:59;;;;;;;29.95;16.05;;;0.20;99.90;;;;;;2073129;28;20594;-64
2021/03/26 04:16:01;;;;;;;30.88;16.00;;;0.20;99.90;;;;;;2080759;28;20238;-64
2021/03/26 04:17:36;;;;;;;27.20;14.68;;;0.20;99.90;;;;;;2072108;28;20279;-64
2021/03/26 04:18:46;;;;;;;26.63;14.75;;;0.10;99.90;;;;;;2071975;28;20209;-64
2021/03/26 04:19:55;;;;;;;25.88;14.32;;;0.10;99.90;;;;;;2082008;28;20202;-65
2021/03/26 04:21:04;;;;;;;25.77;14.38;;;0.20;99.90;;;;;;2078665;28;20719;-64
2021/03/26 04:22:12;;;;;;;26.90;14.55;;;0.20;99.90;;;;;;2072298;28;20188;-65
2021/03/26 04:23:21;;;;;;;28.50;15.82;;;0.20;99.90;;;;;;2081347;28;20206;-65
2021/03/26 04:24:35;;;;;;;28.55;15.13;;;0.20;99.90;;;;;;2079404;28;20241;-64
2021/03/26 04:25:42;;;;;;;27.08;15.23;;;0.20;99.90;;;;;;2065953;28;20899;-65
2021/03/26 04:26:58;;;;;;;31.23;16.80;;;0.30;99.90;;;;;;2081168;28;20309;-65
2021/03/26 04:28:18;;;;;;;33.75;18.00;;;0.30;99.90;;;;;;2078323;28;20293;-65
2021/03/26 04:30:20;;;;;;;29.75;15.82;;;0.30;99.90;;;;;;2074930;28;20172;-65
2021/03/26 04:31:29;;;;;;;26.00;15.50;;;0.30;99.90;;;;;;2071351;28;20289;-64
2021/03/26 04:32:30;;;;;;;26.58;14.93;;;0.30;99.90;;;;;;2081738;28;20230;-65
2021/03/26 04:33:31;;;;;;;32.43;16.73;;;0.30;99.90;;;;;;2080190;28;20187;-64
2021/03/26 04:34:32;;;;;;;32.33;16.43;;;0.30;99.90;;;;;;2072261;28;20182;-65
2021/03/26 04:35:34;;;;;;;25.15;15.48;;;0.30;99.90;;;;;;2088231;28;20265;-65
2021/03/26 04:37:11;;;;;;;35.90;17.52;;;0.30;99.90;;;;;;2080250;28;20273;-65
2021/03/26 04:38:33;;;;;;;29.33;14.45;;;0.30;99.90;;;;;;2072682;28;20219;-64
2021/03/26 04:39:48;;;;;;;27.45;14.70;;;0.30;99.90;;;;;;2088574;28;20728;-65
2021/03/26 04:41:00;;;;;;;23.38;14.27;;;0.30;99.90;;;;;;2077914;28;20197;-65
2021/03/26 04:43:08;;;;;;;25.75;15.55;;;0.20;99.90;;;;;;2072149;28;20277;-65
2021/03/26 04:44:19;;;;;;;27.70;14.43;;;0.30;99.90;;;;;;2074723;28;20210;-65
2021/03/26 04:45:49;;;;;;;26.20;14.18;;;0.20;99.90;;;;;;2080198;28;20232;-65
2021/03/26 04:47:02;;;;;;;28.17;15.07;;;0.20;99.90;;;;;;2088574;28;20678;-65
2021/03/26 04:48:30;;;;;;;28.13;13.68;;;0.20;99.90;;;;;;2080347;28;20546;-65
2021/03/26 04:49:49;;;;;;;29.00;15.52;;;0.20;99.90;;;;;;2080347;28;20185;-65
2021/03/26 04:50:55;;;;;;;21.95;14.07;;;0.10;99.90;;;;;;2079736;28;20293;-65
2021/03/26 04:52:23;;;;;;;31.17;14.73;;;0.10;99.90;;;;;;2080885;28;20249;-65
2021/03/26 04:53:45;;;;;;;29.02;15.57;;;0.10;99.90;;;;;;2085072;28;20219;-65
2021/03/26 04:55:20;;;;;;;24.92;14.25;;;0.10;99.90;;;;;;2080191;28;20284;-65
2021/03/26 04:56:25;;;;;;;30.55;14.25;;;0.10;99.90;;;;;;2080031;28;20566;-67
2021/03/26 04:57:35;;;;;;;26.27;15.43;;;0.10;99.90;;;;;;2081282;28;20214;-65
2021/03/26 04:58:40;;;;;;;27.40;16.13;;;0.10;99.90;;;;;;2088562;28;20814;-64
2021/03/26 04:59:54;;;;;;;30.63;16.42;;;0.10;99.90;;;;;;2087746;28;20197;-64
2021/03/26 05:01:17;;;;;;;21.63;13.48;;;0.10;99.90;;;;;;2081307;28;20197;-64
2021/03/26 05:02:20;;;;;;;26.40;16.35;;;0.00;99.90;;;;;;2080211;28;20726;-64
2021/03/26 05:03:37;;;;;;;29.70;16.48;;;0.00;99.90;;;;;;2072170;28;20710;-65
2021/03/26 05:04:41;;;;;;;31.67;15.88;;;0.00;99.90;;;;;;2080437;28;20180;-64
2021/03/26 05:05:52;;;;;;;31.45;17.25;;;0.00;99.90;;;;;;2080620;28;20211;-64
2021/03/26 05:07:05;;;;;;;28.63;16.52;;;0.00;99.90;;;;;;2088331;28;20186;-64
2021/03/26 05:08:07;;;;;;;30.52;16.58;;;0.00;99.90;;;;;;2087038;28;20162;-64
2021/03/26 05:09:16;;;;;;;32.50;17.67;;;-0.10;99.90;;;;;;2079967;28;20648;-64
2021/03/26 05:10:23;;;;;;;32.30;17.70;;;-0.10;99.90;;;;;;2081535;28;20251;-64
2021/03/26 05:11:27;;;;;;;29.15;16.83;;;0.00;99.90;;;;;;2079420;28;20290;-65
2021/03/26 05:12:36;;;;;;;26.63;16.65;;;-0.10;99.90;;;;;;2080613;28;20178;-65
2021/03/26 05:13:49;;;;;;;31.55;19.08;;;-0.10;99.90;;;;;;2087520;28;20202;-64
2021/03/26 05:14:59;;;;;;;36.13;20.00;;;-0.10;99.90;;;;;;2080771;28;20176;-64
2021/03/26 05:16:07;;;;;;;31.92;20.52;;;-0.10;99.90;;;;;;2080804;28;20171;-64
2021/03/26 05:17:42;;;;;;;40.60;22.35;;;-0.10;99.90;;;;;;2080157;28;20949;-64
2021/03/26 05:18:53;;;;;;;35.08;20.33;;;-0.10;99.90;;;;;;2084632;28;20193;-64
2021/03/26 05:19:56;;;;;;;39.38;21.63;;;-0.10;99.90;;;;;;2080203;28;20176;-64
2021/03/26 05:21:10;;;;;;;33.53;20.67;;;-0.10;99.90;;;;;;2071553;28;20246;-65
2021/03/26 05:22:34;;;;;;;35.38;21.73;;;-0.10;99.90;;;;;;2073740;28;20183;-64
2021/03/26 05:24:14;;;;;;;32.80;19.30;;;-0.10;99.90;;;;;;2080193;28;20289;-65
2021/03/26 05:25:38;;;;;;;29.55;17.33;;;0.00;99.90;;;;;;2080579;28;20252;-65
2021/03/26 05:26:39;;;;;;;28.92;17.42;;;0.00;99.90;;;;;;2080723;28;20204;-65
2021/03/26 05:27:41;;;;;;;32.75;19.13;;;-0.10;99.90;;;;;;2080709;28;20385;-64
2021/03/26 05:28:46;;;;;;;42.70;23.50;;;0.00;99.90;;;;;;2088382;28;20179;-65
2021/03/26 05:29:48;;;;;;;45.15;22.30;;;0.00;99.90;;;;;;2079989;28;20183;-64
2021/03/26 05:30:50;;;;;;;45.63;24.48;;;0.00;99.90;;;;;;2079801;28;20272;-65
2021/03/26 05:32:24;;;;;;;40.67;22.35;;;0.00;99.90;;;;;;2079978;28;20187;-65
2021/03/26 05:33:42;;;;;;;38.47;20.75;;;0.00;99.90;;;;;;2088233;28;20216;-64
2021/03/26 05:34:50;;;;;;;35.72;20.48;;;0.00;99.90;;;;;;2086198;28;20851;-64
2021/03/26 05:36:14;;;;;;;36.50;20.80;;;0.00;99.90;;;;;;2080929;28;20252;-65
2021/03/26 05:37:42;;;;;;;33.88;19.48;;;0.00;99.90;;;;;;2080033;28;20236;-64
2021/03/26 05:39:20;;;;;;;31.92;19.40;;;0.00;99.90;;;;;;2080253;28;20221;-65
2021/03/26 05:41:04;;;;;;;30.77;18.27;;;0.00;99.90;;;;;;2080382;28;20820;-64
2021/03/26 05:42:27;;;;;;;38.10;17.48;;;0.00;99.90;;;;;;2068960;28;20295;-65
2021/03/26 05:43:58;;;;;;;36.13;18.50;;;0.10;99.90;;;;;;2079847;28;20249;-65
2021/03/26 05:45:21;;;;;;;33.80;18.08;;;0.10;99.90;;;;;;2080188;28;20229;-65
2021/03/26 05:47:10;;;;;;;32.75;18.00;;;0.10;99.90;;;;;;2080242;28;20168;-65
2021/03/26 05:48:38;;;;;;;35.70;17.42;;;0.10;99.90;;;;;;2078932;28;20343;-65
2021/03/26 05:50:18;;;;;;;35.67;19.08;;;0.10;99.90;;;;;;2088330;28;20191;-64
2021/03/26 05:52:11;;;;;;;41.28;19.58;;;0.20;99.90;;;;;;2073364;28;20222;-64
2021/03/26 05:53:39;;;;;;;35.90;17.58;;;0.20;99.90;;;;;;2080629;28;20281;-65
2021/03/26 05:55:08;;;;;;;28.55;16.27;;;0.20;99.90;;;;;;2079969;28;20173;-65
2021/03/26 05:56:24;;;;;;;33.20;17.15;;;0.20;99.90;;;;;;2083781;28;20161;-65
2021/03/26 05:57:39;;;;;;;28.23;16.13;;;0.20;99.90;;;;;;2086403;28;20182;-65
2021/03/26 05:58:50;;;;;;;31.25;17.92;;;0.20;99.90;;;;;;2088206;28;20233;-65
2021/03/26 06:00:26;;;;;;;32.22;17.42;;;0.20;99.90;;;;;;2086738;28;20262;-64
2021/03/26 06:01:51;;;;;;;33.15;17.02;;;0.30;99.90;;;;;;2079563;28;20237;-65
2021/03/26 06:03:18;;;;;;;31.85;16.83;;;0.30;99.90;;;;;;2080563;28;20164;-65
2021/03/26 06:04:32;;;;;;;27.55;16.00;;;0.30;99.90;;;;;;2080663;28;20176;-65